createdAt,value
2019-01-10T00:01:18.426Z,266.40
2019-01-10T00:03:59.759Z,303.23
2019-01-10T00:06:40.229Z,386.50
2019-01-10T00:09:20.911Z,349.23
2019-01-10T00:12:02.068Z,290.93
2019-01-10T00:14:42.228Z,290.93
2019-01-10T00:17:23.059Z,271.63
2019-01-10T00:20:03.895Z,277.77
2019-01-10T00:22:44.938Z,279.83
2019-01-10T00:25:25.587Z,285.57
2019-01-10T00:28:06.163Z,276.67
2019-01-10T00:30:46.753Z,293.53
2019-01-10T00:33:27.684Z,275.87
2019-01-10T00:36:08.263Z,288.40
2019-01-10T00:38:49.145Z,272.63
2019-01-10T00:41:30.303Z,265.83
2019-01-10T00:44:11.184Z,274.73
2019-01-10T00:46:51.954Z,273.27
2019-01-10T00:49:32.544Z,373.03
2019-01-10T00:52:12.990Z,396.23
2019-01-10T00:54:53.850Z,407.23
2019-01-10T00:57:34.705Z,301.00
2019-01-10T01:00:16.322Z,310.63
2019-01-10T01:02:57.222Z,283.40
2019-01-10T01:05:37.939Z,317.37
2019-01-10T01:08:18.411Z,312.00
2019-01-10T01:10:59.678Z,304.77
2019-01-10T01:13:40.252Z,295.50
2019-01-10T01:16:22.135Z,315.67
2019-01-10T01:19:02.502Z,309.83
2019-01-10T01:21:43.674Z,315.60
2019-01-10T01:24:24.386Z,309.33
2019-01-10T01:27:05.145Z,293.97
2019-01-10T01:29:46.098Z,299.40
2019-01-10T01:32:26.495Z,281.20
2019-01-10T01:35:07.904Z,268.57
2019-01-10T01:37:48.522Z,288.07
2019-01-10T01:40:29.584Z,297.73
2019-01-10T01:43:09.863Z,308.70
2019-01-10T01:45:50.494Z,297.90
2019-01-10T01:48:31.366Z,287.13
2019-01-10T01:51:12.389Z,300.60
2019-01-10T01:53:53.103Z,301.03
2019-01-10T01:56:33.905Z,292.40
2019-01-10T01:59:14.425Z,278.00
2019-01-10T02:01:55.324Z,269.67
2019-01-10T02:04:36.285Z,285.60
2019-01-10T02:07:17.064Z,298.97
2019-01-10T02:09:57.820Z,306.20
2019-01-10T02:12:39.076Z,314.17
2019-01-10T02:15:20.066Z,311.03
2019-01-10T02:18:01.619Z,317.27
2019-01-10T02:20:42.075Z,304.33
2019-01-10T02:23:22.985Z,294.47
2019-01-10T02:26:03.557Z,309.53
2019-01-10T02:28:44.357Z,310.90
2019-01-10T02:31:25.507Z,305.37
2019-01-10T02:34:06.747Z,299.40
2019-01-10T02:36:47.157Z,313.33
2019-01-10T02:39:28.119Z,307.77
2019-01-10T02:42:09.186Z,297.97
2019-01-10T02:44:50.268Z,276.07
2019-01-10T02:47:31.145Z,278.87
2019-01-10T02:50:12.125Z,244.10
2019-01-10T02:52:52.901Z,234.53
2019-01-10T02:55:33.791Z,235.67
2019-01-10T02:58:14.588Z,227.10
2019-01-10T03:00:54.894Z,203.83
2019-01-10T03:03:35.777Z,206.37
2019-01-10T03:06:16.265Z,199.87
2019-01-10T03:08:57.113Z,189.80
2019-01-10T03:11:37.323Z,189.40
2019-01-10T03:14:18.584Z,175.53
2019-01-10T03:16:59.725Z,171.30
2019-01-10T03:19:40.353Z,170.50
2019-01-10T03:22:21.141Z,170.83
2019-01-10T03:25:02.363Z,168.43
2019-01-10T03:27:42.477Z,163.33
2019-01-10T03:30:24.023Z,165.37
2019-01-10T03:33:05.036Z,162.77
2019-01-10T03:35:46.269Z,156.17
2019-01-10T03:38:26.398Z,156.40
2019-01-10T03:41:07.061Z,149.27
2019-01-10T03:43:47.938Z,149.97
2019-01-10T03:46:29.450Z,140.37
2019-01-10T03:49:10.899Z,144.47
2019-01-10T03:51:52.666Z,161.20
2019-01-10T03:54:33.638Z,276.17
2019-01-10T03:57:14.557Z,179.23
2019-01-10T03:59:55.310Z,128.50
2019-01-10T04:02:36.392Z,135.67
2019-01-10T04:05:17.191Z,123.13
2019-01-10T04:07:58.207Z,127.70
2019-01-10T04:10:38.879Z,124.90
2019-01-10T04:13:19.722Z,124.73
2019-01-10T04:16:00.110Z,116.37
2019-01-10T04:18:40.866Z,120.23
2019-01-10T04:21:21.069Z,118.83
2019-01-10T04:24:02.105Z,117.37
2019-01-10T04:26:42.946Z,114.07
2019-01-10T04:29:23.961Z,115.47
2019-01-10T04:32:04.837Z,119.80
2019-01-10T04:34:46.130Z,115.50
2019-01-10T04:37:27.177Z,111.10
2019-01-10T04:40:08.493Z,114.83
2019-01-10T04:42:49.468Z,112.40
2019-01-10T04:45:29.866Z,107.20
2019-01-10T04:48:10.984Z,108.13
2019-01-10T04:50:51.552Z,105.90
2019-01-10T04:53:32.565Z,95.07
2019-01-10T04:56:13.481Z,103.83
2019-01-10T04:58:54.263Z,108.30
2019-01-10T05:01:34.503Z,101.00
2019-01-10T05:04:15.192Z,112.47
2019-01-10T05:06:55.069Z,111.33
2019-01-10T05:09:35.383Z,112.30
2019-01-10T05:12:16.141Z,117.47
2019-01-10T05:14:56.633Z,111.97
2019-01-10T05:17:37.794Z,115.03
2019-01-10T05:20:17.841Z,116.27
2019-01-10T05:22:57.997Z,259.00
2019-01-10T05:25:38.745Z,245.90
2019-01-10T05:28:19.321Z,142.43
2019-01-10T05:30:59.783Z,396.33
2019-01-10T05:33:40.112Z,252.83
2019-01-10T05:36:20.835Z,138.67
2019-01-10T05:39:01.152Z,131.57
2019-01-10T05:41:41.269Z,135.13
2019-01-10T05:44:26.592Z,143.67
2019-01-10T05:47:02.462Z,116.07
2019-01-10T05:49:42.599Z,117.03
2019-01-10T05:52:22.654Z,112.10
2019-01-10T05:55:03.224Z,131.40
2019-01-10T05:57:43.266Z,115.93
2019-01-10T06:00:23.463Z,146.43
2019-01-10T06:03:03.592Z,120.37
2019-01-10T06:05:44.084Z,152.40
2019-01-10T06:08:25.218Z,131.63
2019-01-10T06:11:05.808Z,109.17
2019-01-10T06:13:46.745Z,124.87
2019-01-10T06:16:28.512Z,112.03
2019-01-10T06:19:09.411Z,111.23
2019-01-10T06:21:50.743Z,118.27
2019-01-10T06:24:31.794Z,106.60
2019-01-10T06:27:12.676Z,116.00
2019-01-10T06:29:53.148Z,115.77
2019-01-10T06:32:33.671Z,105.60
2019-01-10T06:38:00.993Z,111.93
2019-01-10T06:40:42.265Z,104.23
2019-01-10T06:43:23.314Z,115.97
2019-01-10T06:46:04.200Z,104.47
2019-01-10T06:48:44.587Z,114.73
2019-01-10T06:51:25.285Z,123.07
2019-01-10T06:54:05.868Z,119.17
2019-01-10T06:56:46.755Z,120.23
2019-01-10T06:59:27.543Z,117.97
2019-01-10T07:02:12.205Z,121.90
2019-01-10T07:04:53.346Z,125.37
2019-01-10T07:07:33.916Z,124.00
2019-01-10T07:10:14.788Z,125.93
2019-01-10T07:12:55.427Z,110.53
2019-01-10T07:15:35.719Z,120.67
2019-01-10T07:18:16.559Z,117.93
2019-01-10T07:20:57.363Z,122.93
2019-01-10T07:23:37.907Z,120.90
2019-01-10T07:26:18.361Z,126.43
2019-01-10T07:28:58.663Z,126.93
2019-01-10T07:31:38.991Z,145.07
2019-01-10T07:34:19.474Z,122.83
2019-01-10T07:36:59.713Z,122.87
2019-01-10T07:39:40.276Z,136.87
2019-01-10T07:42:20.718Z,120.90
2019-01-10T07:45:02.766Z,126.00
2019-01-10T07:47:43.073Z,125.23
2019-01-10T07:50:23.753Z,133.27
2019-01-10T07:53:04.230Z,122.40
2019-01-10T07:55:44.426Z,128.77
2019-01-10T07:58:25.352Z,126.63
2019-01-10T08:01:05.711Z,128.00
2019-01-10T08:03:46.467Z,125.13
2019-01-10T08:06:26.834Z,130.47
2019-01-10T08:09:08.353Z,130.37
2019-01-10T08:11:48.548Z,141.23
2019-01-10T08:14:28.908Z,138.50
2019-01-10T08:17:15.929Z,135.80
2019-01-10T08:19:51.704Z,132.43
2019-01-10T08:22:32.988Z,133.87
2019-01-10T08:25:13.347Z,138.57
2019-01-10T08:27:53.972Z,134.47
2019-01-10T08:30:34.984Z,128.77
2019-01-10T08:33:15.963Z,131.03
2019-01-10T08:35:56.826Z,128.57
2019-01-10T08:38:37.787Z,124.43
2019-01-10T08:41:18.754Z,139.30
2019-01-10T08:44:00.023Z,137.50
2019-01-10T08:46:40.792Z,147.43
2019-01-10T08:49:21.944Z,129.37
2019-01-10T08:52:02.985Z,132.67
2019-01-10T08:54:43.335Z,127.60
2019-01-10T08:57:24.343Z,128.33
2019-01-10T09:00:05.585Z,129.03
2019-01-10T09:02:47.065Z,126.20
2019-01-10T09:05:27.735Z,118.13
2019-01-10T09:08:08.732Z,136.97
2019-01-10T09:10:49.946Z,137.80
2019-01-10T09:13:31.234Z,132.43
2019-01-10T09:16:12.144Z,136.20
2019-01-10T09:18:53.233Z,149.07
2019-01-10T09:21:33.787Z,126.00
2019-01-10T09:24:14.584Z,138.57
2019-01-10T09:26:55.707Z,140.43
2019-01-10T09:29:36.705Z,146.90
2019-01-10T09:32:17.797Z,139.50
2019-01-10T09:34:58.905Z,149.13
2019-01-10T09:37:40.198Z,151.73
2019-01-10T09:40:21.784Z,138.50
2019-01-10T09:43:03.114Z,148.20
2019-01-10T09:45:44.026Z,144.77
2019-01-10T09:48:25.638Z,139.33
2019-01-10T09:51:06.134Z,140.20
2019-01-10T09:53:47.313Z,132.97
2019-01-10T09:56:28.571Z,136.57
2019-01-10T09:59:09.743Z,132.37
2019-01-10T10:01:51.390Z,142.73
2019-01-10T10:04:32.426Z,126.90
2019-01-10T10:07:13.741Z,127.63
2019-01-10T10:09:54.588Z,130.80
2019-01-10T10:12:35.701Z,133.67
2019-01-10T10:15:16.904Z,134.47
2019-01-10T10:17:57.793Z,145.27
2019-01-10T10:20:38.673Z,138.83
2019-01-10T10:23:26.703Z,140.33
2019-01-10T10:26:01.387Z,140.23
2019-01-10T10:28:42.909Z,143.00
2019-01-10T10:31:24.186Z,133.97
2019-01-10T10:34:05.465Z,148.37
2019-01-10T10:36:46.755Z,127.60
2019-01-10T10:39:27.711Z,139.20
2019-01-10T10:42:09.186Z,139.20
2019-01-10T10:44:50.022Z,149.73
2019-01-10T10:47:30.824Z,123.67
2019-01-10T10:50:11.746Z,118.57
2019-01-10T10:52:52.697Z,134.53
2019-01-10T10:55:33.186Z,118.60
2019-01-10T10:58:14.349Z,121.70
2019-01-10T11:00:55.437Z,123.20
2019-01-10T11:03:36.429Z,122.23
2019-01-10T11:06:17.354Z,113.10
2019-01-10T11:08:58.597Z,113.70
2019-01-10T11:11:39.386Z,123.50
2019-01-10T11:14:20.587Z,122.43
2019-01-10T11:17:01.802Z,121.13
2019-01-10T11:19:43.065Z,124.30
2019-01-10T11:22:24.065Z,126.30
2019-01-10T11:25:04.824Z,128.07
2019-01-10T11:27:45.794Z,132.73
2019-01-10T11:30:27.235Z,124.13
2019-01-10T11:33:08.260Z,128.43
2019-01-10T11:35:48.825Z,132.27
2019-01-10T11:38:29.914Z,130.00
2019-01-10T11:41:11.384Z,138.33
2019-01-10T11:43:52.296Z,138.97
2019-01-10T11:46:33.470Z,137.47
2019-01-10T11:49:14.042Z,141.20
2019-01-10T11:51:54.549Z,138.33
2019-01-10T11:54:35.459Z,144.60
2019-01-10T11:57:16.831Z,152.50
2019-01-10T11:59:57.597Z,146.23
2019-01-10T12:02:38.477Z,150.07
2019-01-10T12:05:18.775Z,150.13
2019-01-10T12:08:00.357Z,153.50
2019-01-10T12:10:41.266Z,165.07
2019-01-10T12:13:21.948Z,149.73
2019-01-10T12:16:02.920Z,157.53
2019-01-10T12:18:43.703Z,160.30
2019-01-10T12:21:24.864Z,181.17
2019-01-10T12:24:05.192Z,210.03
2019-01-10T12:26:45.506Z,161.30
2019-01-10T12:29:25.994Z,157.50
2019-01-10T12:32:06.554Z,174.90
2019-01-10T12:34:47.382Z,168.97
2019-01-10T12:37:27.884Z,172.67
2019-01-10T12:40:08.142Z,179.57
2019-01-10T12:42:48.224Z,173.27
2019-01-10T12:45:28.635Z,168.67
2019-01-10T12:48:11.257Z,173.47
2019-01-10T12:50:51.301Z,177.83
2019-01-10T12:53:31.624Z,184.10
2019-01-10T12:56:11.870Z,187.83
2019-01-10T12:58:51.986Z,196.53
2019-01-10T13:01:32.713Z,199.70
2019-01-10T13:04:13.153Z,189.80
2019-01-10T13:06:53.196Z,207.47
2019-01-10T13:09:33.574Z,207.27
2019-01-10T13:12:13.828Z,224.50
2019-01-10T13:14:55.069Z,204.73
2019-01-10T13:17:35.162Z,207.37
2019-01-10T13:20:16.309Z,210.17
2019-01-10T13:22:56.428Z,212.03
2019-01-10T13:25:37.952Z,215.87
2019-01-10T13:28:18.749Z,226.73
2019-01-10T13:30:59.008Z,216.73
2019-01-10T13:33:42.229Z,240.50
2019-01-10T13:36:22.551Z,239.57
2019-01-10T13:41:52.744Z,233.77
2019-01-10T13:44:32.877Z,243.90
2019-01-10T13:47:13.018Z,255.30
2019-01-10T13:49:53.672Z,243.47
2019-01-10T13:52:34.028Z,233.23
2019-01-10T13:55:14.400Z,229.70
2019-01-10T13:57:55.023Z,247.60
2019-01-10T14:00:37.270Z,267.83
2019-01-10T14:03:17.864Z,254.13
2019-01-10T14:05:58.187Z,263.23
2019-01-10T14:08:38.313Z,249.00
2019-01-10T14:11:19.237Z,240.20
2019-01-10T14:13:59.594Z,263.50
2019-01-10T14:16:39.716Z,253.53
2019-01-10T14:19:22.234Z,257.80
2019-01-10T14:22:07.505Z,254.23
2019-01-10T14:24:50.125Z,271.57
2019-01-10T14:27:30.713Z,274.83
2019-01-10T14:30:12.466Z,285.57
2019-01-10T14:32:52.827Z,272.83
2019-01-10T14:35:32.834Z,290.17
2019-01-10T14:38:12.671Z,286.87
2019-01-10T14:40:53.095Z,299.43
2019-01-10T14:43:33.519Z,351.93
2019-01-10T14:46:13.750Z,370.63
2019-01-10T14:48:53.992Z,327.83
2019-01-10T14:51:34.033Z,306.13
2019-01-10T14:54:16.079Z,325.30
2019-01-10T14:59:33.554Z,308.73
2019-01-10T15:04:55.634Z,318.80
2019-01-10T15:07:25.391Z,283.03
2019-01-10T15:09:54.601Z,297.63
2019-01-10T15:12:28.622Z,289.10
2019-01-10T15:15:01.249Z,309.53
2019-01-10T15:17:32.469Z,315.20
2019-01-10T15:22:50.040Z,381.57
2019-01-10T15:25:22.837Z,349.17
2019-01-10T15:27:55.089Z,331.60
2019-01-10T15:30:25.909Z,324.20
2019-01-10T15:32:58.505Z,338.57
2019-01-10T16:01:07.787Z,272.20
2019-01-10T16:18:52.156Z,291.40
2019-01-10T16:54:32.351Z,273.10
2019-01-10T17:02:07.217Z,272.13
2019-01-10T17:04:38.824Z,278.13
2019-01-10T17:37:40.195Z,270.10
2019-01-10T18:51:22.354Z,281.23
